sensor_id;sensor_type;location;lat;lon;timestamp;temperature;humidity
53053;DHT22;38934;52.690;6.184;2023-08-30T00:00:15;14.00;99.90
53053;DHT22;38934;52.690;6.184;2023-08-30T00:02:45;13.20;99.90
53053;DHT22;38934;52.690;6.184;2023-08-30T00:05:11;13.20;99.90
53053;DHT22;38934;52.690;6.184;2023-08-30T00:07:37;13.20;99.90
53053;DHT22;38934;52.690;6.184;2023-08-30T00:10:03;13.20;99.90
53053;DHT22;38934;52.690;6.184;2023-08-30T00:12:29;13.20;99.90
53053;DHT22;38934;52.690;6.184;2023-08-30T00:14:55;13.10;99.90
53053;DHT22;38934;52.690;6.184;2023-08-30T00:17:22;13.10;99.90
53053;DHT22;38934;52.690;6.184;2023-08-30T00:19:47;13.10;99.90
53053;DHT22;38934;52.690;6.184;2023-08-30T00:22:14;13.10;99.90
53053;DHT22;38934;52.690;6.184;2023-08-30T00:24:39;13.00;99.90
53053;DHT22;38934;52.690;6.184;2023-08-30T00:27:05;13.00;99.90
53053;DHT22;38934;52.690;6.184;2023-08-30T00:29:31;13.00;99.90
53053;DHT22;38934;52.690;6.184;2023-08-30T00:31:56;12.90;99.90
53053;DHT22;38934;52.690;6.184;2023-08-30T00:34:22;12.90;99.90
53053;DHT22;38934;52.690;6.184;2023-08-30T00:36:48;12.90;99.90
53053;DHT22;38934;52.690;6.184;2023-08-30T00:39:14;12.80;99.90
53053;DHT22;38934;52.690;6.184;2023-08-30T00:41:40;12.80;99.90
53053;DHT22;38934;52.690;6.184;2023-08-30T00:44:06;12.70;99.90
53053;DHT22;38934;52.690;6.184;2023-08-30T00:46:32;12.70;99.90
53053;DHT22;38934;52.690;6.184;2023-08-30T00:49:02;13.10;99.90
53053;DHT22;38934;52.690;6.184;2023-08-30T00:51:28;12.60;99.90
53053;DHT22;38934;52.690;6.184;2023-08-30T00:53:55;12.60;99.90
53053;DHT22;38934;52.690;6.184;2023-08-30T00:56:20;12.60;99.90
53053;DHT22;38934;52.690;6.184;2023-08-30T00:58:48;12.50;99.90
53053;DHT22;38934;52.690;6.184;2023-08-30T01:01:17;12.50;99.90
53053;DHT22;38934;52.690;6.184;2023-08-30T01:03:43;12.50;99.90
53053;DHT22;38934;52.690;6.184;2023-08-30T01:06:09;13.30;99.90
53053;DHT22;38934;52.690;6.184;2023-08-30T01:08:36;12.50;99.90
53053;DHT22;38934;52.690;6.184;2023-08-30T01:13:38;12.60;99.90
53053;DHT22;38934;52.690;6.184;2023-08-30T01:16:05;12.70;99.90
53053;DHT22;38934;52.690;6.184;2023-08-30T01:18:34;12.70;99.90
53053;DHT22;38934;52.690;6.184;2023-08-30T01:21:02;12.80;99.90
53053;DHT22;38934;52.690;6.184;2023-08-30T01:23:48;12.80;99.90
53053;DHT22;38934;52.690;6.184;2023-08-30T01:29:09;12.80;99.90
53053;DHT22;38934;52.690;6.184;2023-08-30T01:31:37;12.90;99.90
53053;DHT22;38934;52.690;6.184;2023-08-30T01:34:04;13.50;99.90
53053;DHT22;38934;52.690;6.184;2023-08-30T01:36:31;12.30;99.90
53053;DHT22;38934;52.690;6.184;2023-08-30T01:38:58;12.90;99.90
53053;DHT22;38934;52.690;6.184;2023-08-30T01:41:25;12.90;99.90
53053;DHT22;38934;52.690;6.184;2023-08-30T01:43:53;13.00;99.90
53053;DHT22;38934;52.690;6.184;2023-08-30T01:46:19;13.00;99.90
53053;DHT22;38934;52.690;6.184;2023-08-30T01:48:47;13.00;99.90
53053;DHT22;38934;52.690;6.184;2023-08-30T01:51:15;13.00;99.90
53053;DHT22;38934;52.690;6.184;2023-08-30T01:53:43;13.00;99.90
53053;DHT22;38934;52.690;6.184;2023-08-30T01:56:10;13.10;99.90
53053;DHT22;38934;52.690;6.184;2023-08-30T01:58:36;13.10;99.90
53053;DHT22;38934;52.690;6.184;2023-08-30T02:01:01;13.10;99.90
53053;DHT22;38934;52.690;6.184;2023-08-30T02:03:27;13.10;99.90
53053;DHT22;38934;52.690;6.184;2023-08-30T02:06:22;13.10;99.90
53053;DHT22;38934;52.690;6.184;2023-08-30T02:09:03;13.10;99.90
53053;DHT22;38934;52.690;6.184;2023-08-30T02:11:32;13.00;99.90
53053;DHT22;38934;52.690;6.184;2023-08-30T02:14:00;13.00;99.90
53053;DHT22;38934;52.690;6.184;2023-08-30T02:16:27;12.90;99.90
53053;DHT22;38934;52.690;6.184;2023-08-30T02:18:53;13.30;99.90
53053;DHT22;38934;52.690;6.184;2023-08-30T02:21:20;12.80;99.90
53053;DHT22;38934;52.690;6.184;2023-08-30T02:23:50;12.70;99.90
53053;DHT22;38934;52.690;6.184;2023-08-30T02:26:18;12.60;99.90
53053;DHT22;38934;52.690;6.184;2023-08-30T02:28:44;12.60;99.90
53053;DHT22;38934;52.690;6.184;2023-08-30T02:31:10;13.00;99.90
53053;DHT22;38934;52.690;6.184;2023-08-30T02:33:35;12.50;99.90
53053;DHT22;38934;52.690;6.184;2023-08-30T02:36:03;12.50;99.90
53053;DHT22;38934;52.690;6.184;2023-08-30T02:38:29;12.40;99.90
53053;DHT22;38934;52.690;6.184;2023-08-30T02:40:54;13.20;99.90
53053;DHT22;38934;52.690;6.184;2023-08-30T02:43:20;12.40;99.90
53053;DHT22;38934;52.690;6.184;2023-08-30T02:45:46;12.40;99.90
53053;DHT22;38934;52.690;6.184;2023-08-30T02:48:11;12.90;99.90
53053;DHT22;38934;52.690;6.184;2023-08-30T02:50:37;12.40;99.90
53053;DHT22;38934;52.690;6.184;2023-08-30T02:53:03;12.40;99.90
53053;DHT22;38934;52.690;6.184;2023-08-30T02:55:30;12.40;99.90
53053;DHT22;38934;52.690;6.184;2023-08-30T02:57:56;12.40;99.90
53053;DHT22;38934;52.690;6.184;2023-08-30T03:00:22;12.50;99.90
53053;DHT22;38934;52.690;6.184;2023-08-30T03:02:47;12.50;99.90
53053;DHT22;38934;52.690;6.184;2023-08-30T03:05:14;12.50;99.90
53053;DHT22;38934;52.690;6.184;2023-08-30T03:07:39;12.60;99.90
53053;DHT22;38934;52.690;6.184;2023-08-30T03:10:06;13.50;99.90
53053;DHT22;38934;52.690;6.184;2023-08-30T03:12:31;12.70;99.90
53053;DHT22;38934;52.690;6.184;2023-08-30T03:14:58;12.70;99.90
53053;DHT22;38934;52.690;6.184;2023-08-30T03:17:24;12.70;99.90
53053;DHT22;38934;52.690;6.184;2023-08-30T03:19:52;12.70;99.90
53053;DHT22;38934;52.690;6.184;2023-08-30T03:22:21;12.80;99.90
53053;DHT22;38934;52.690;6.184;2023-08-30T03:24:46;12.80;99.90
53053;DHT22;38934;52.690;6.184;2023-08-30T03:27:12;13.30;99.90
53053;DHT22;38934;52.690;6.184;2023-08-30T03:29:38;12.80;99.90
53053;DHT22;38934;52.690;6.184;2023-08-30T03:32:04;12.90;99.90
53053;DHT22;38934;52.690;6.184;2023-08-30T03:34:30;12.90;99.90
53053;DHT22;38934;52.690;6.184;2023-08-30T03:36:55;12.90;99.90
53053;DHT22;38934;52.690;6.184;2023-08-30T03:39:22;12.90;99.90
53053;DHT22;38934;52.690;6.184;2023-08-30T03:41:48;12.90;99.90
53053;DHT22;38934;52.690;6.184;2023-08-30T03:44:13;13.00;99.90
53053;DHT22;38934;52.690;6.184;2023-08-30T03:46:39;13.00;99.90
53053;DHT22;38934;52.690;6.184;2023-08-30T03:49:04;13.00;99.90
53053;DHT22;38934;52.690;6.184;2023-08-30T03:51:30;13.10;99.90
53053;DHT22;38934;52.690;6.184;2023-08-30T03:53:56;13.10;99.90
53053;DHT22;38934;52.690;6.184;2023-08-30T03:56:22;13.10;99.90
53053;DHT22;38934;52.690;6.184;2023-08-30T03:58:48;13.40;99.90
53053;DHT22;38934;52.690;6.184;2023-08-30T04:01:14;13.10;99.90
53053;DHT22;38934;52.690;6.184;2023-08-30T04:03:39;13.10;99.90
53053;DHT22;38934;52.690;6.184;2023-08-30T04:06:05;13.10;99.90
53053;DHT22;38934;52.690;6.184;2023-08-30T04:08:31;13.10;99.90
53053;DHT22;38934;52.690;6.184;2023-08-30T04:10:57;13.20;99.90
53053;DHT22;38934;52.690;6.184;2023-08-30T04:13:22;13.20;99.90
53053;DHT22;38934;52.690;6.184;2023-08-30T04:15:48;13.20;99.90
53053;DHT22;38934;52.690;6.184;2023-08-30T04:18:14;13.60;99.90
53053;DHT22;38934;52.690;6.184;2023-08-30T04:20:44;13.70;99.90
53053;DHT22;38934;52.690;6.184;2023-08-30T04:23:10;13.20;99.90
53053;DHT22;38934;52.690;6.184;2023-08-30T04:25:37;13.20;99.90
53053;DHT22;38934;52.690;6.184;2023-08-30T04:28:03;13.20;99.90
53053;DHT22;38934;52.690;6.184;2023-08-30T04:30:28;13.30;99.90
53053;DHT22;38934;52.690;6.184;2023-08-30T04:32:54;13.30;99.90
53053;DHT22;38934;52.690;6.184;2023-08-30T04:35:20;13.80;99.90
53053;DHT22;38934;52.690;6.184;2023-08-30T04:37:46;13.80;99.90
53053;DHT22;38934;52.690;6.184;2023-08-30T04:40:12;13.30;99.90
53053;DHT22;38934;52.690;6.184;2023-08-30T04:42:37;13.30;99.90
53053;DHT22;38934;52.690;6.184;2023-08-30T04:45:05;13.90;99.90
53053;DHT22;38934;52.690;6.184;2023-08-30T04:47:31;13.30;99.90
53053;DHT22;38934;52.690;6.184;2023-08-30T04:49:57;13.30;99.90
53053;DHT22;38934;52.690;6.184;2023-08-30T04:52:23;13.30;99.90
53053;DHT22;38934;52.690;6.184;2023-08-30T04:54:49;13.30;99.90
53053;DHT22;38934;52.690;6.184;2023-08-30T04:57:15;13.30;99.90
53053;DHT22;38934;52.690;6.184;2023-08-30T04:59:42;13.30;99.90
53053;DHT22;38934;52.690;6.184;2023-08-30T05:02:08;13.30;99.90
53053;DHT22;38934;52.690;6.184;2023-08-30T05:04:34;13.30;99.90
53053;DHT22;38934;52.690;6.184;2023-08-30T05:07:00;13.30;99.90
53053;DHT22;38934;52.690;6.184;2023-08-30T05:09:25;13.30;99.90
53053;DHT22;38934;52.690;6.184;2023-08-30T05:11:52;13.40;99.90
53053;DHT22;38934;52.690;6.184;2023-08-30T05:14:17;13.30;99.90
53053;DHT22;38934;52.690;6.184;2023-08-30T05:16:43;13.40;99.90
53053;DHT22;38934;52.690;6.184;2023-08-30T05:19:09;13.40;99.90
53053;DHT22;38934;52.690;6.184;2023-08-30T05:21:34;13.40;99.90
53053;DHT22;38934;52.690;6.184;2023-08-30T05:24:00;14.10;99.90
53053;DHT22;38934;52.690;6.184;2023-08-30T05:26:26;14.00;99.90
53053;DHT22;38934;52.690;6.184;2023-08-30T05:28:51;13.40;99.90
53053;DHT22;38934;52.690;6.184;2023-08-30T05:31:17;13.50;99.90
53053;DHT22;38934;52.690;6.184;2023-08-30T05:33:43;13.50;99.90
53053;DHT22;38934;52.690;6.184;2023-08-30T05:36:08;13.50;99.90
53053;DHT22;38934;52.690;6.184;2023-08-30T05:38:34;13.60;99.90
53053;DHT22;38934;52.690;6.184;2023-08-30T05:41:00;13.60;99.90
53053;DHT22;38934;52.690;6.184;2023-08-30T05:43:25;13.70;99.90
53053;DHT22;38934;52.690;6.184;2023-08-30T05:45:51;13.70;99.90
53053;DHT22;38934;52.690;6.184;2023-08-30T05:48:16;13.80;99.90
53053;DHT22;38934;52.690;6.184;2023-08-30T05:50:42;14.50;99.90
53053;DHT22;38934;52.690;6.184;2023-08-30T05:53:08;14.20;99.90
53053;DHT22;38934;52.690;6.184;2023-08-30T05:55:34;13.90;99.90
53053;DHT22;38934;52.690;6.184;2023-08-30T05:57:59;14.00;99.90
53053;DHT22;38934;52.690;6.184;2023-08-30T06:00:25;14.00;99.90
53053;DHT22;38934;52.690;6.184;2023-08-30T06:02:51;14.00;99.90
53053;DHT22;38934;52.690;6.184;2023-08-30T06:05:18;14.00;99.90
53053;DHT22;38934;52.690;6.184;2023-08-30T06:07:43;14.10;99.90
53053;DHT22;38934;52.690;6.184;2023-08-30T06:10:10;14.10;99.90
53053;DHT22;38934;52.690;6.184;2023-08-30T06:12:35;14.70;99.90
53053;DHT22;38934;52.690;6.184;2023-08-30T06:15:01;14.20;99.90
53053;DHT22;38934;52.690;6.184;2023-08-30T06:17:27;14.50;99.90
53053;DHT22;38934;52.690;6.184;2023-08-30T06:19:52;14.30;99.90
53053;DHT22;38934;52.690;6.184;2023-08-30T06:22:18;15.30;99.90
53053;DHT22;38934;52.690;6.184;2023-08-30T06:24:44;14.40;99.90
53053;DHT22;38934;52.690;6.184;2023-08-30T06:27:09;14.40;99.90
53053;DHT22;38934;52.690;6.184;2023-08-30T06:29:35;15.10;99.90
53053;DHT22;38934;52.690;6.184;2023-08-30T06:32:02;14.40;99.90
53053;DHT22;38934;52.690;6.184;2023-08-30T06:34:28;14.50;99.90
53053;DHT22;38934;52.690;6.184;2023-08-30T06:36:53;14.60;99.90
53053;DHT22;38934;52.690;6.184;2023-08-30T06:39:19;15.00;99.90
53053;DHT22;38934;52.690;6.184;2023-08-30T06:41:51;14.50;99.90
53053;DHT22;38934;52.690;6.184;2023-08-30T06:44:18;14.50;99.90
53053;DHT22;38934;52.690;6.184;2023-08-30T06:49:37;15.10;99.90
53053;DHT22;38934;52.690;6.184;2023-08-30T06:52:03;14.80;99.90
53053;DHT22;38934;52.690;6.184;2023-08-30T06:54:33;14.60;99.90
53053;DHT22;38934;52.690;6.184;2023-08-30T06:57:00;14.70;99.90
53053;DHT22;38934;52.690;6.184;2023-08-30T06:59:26;14.80;99.90
53053;DHT22;38934;52.690;6.184;2023-08-30T07:01:52;14.90;99.90
53053;DHT22;38934;52.690;6.184;2023-08-30T07:04:18;15.00;99.90
53053;DHT22;38934;52.690;6.184;2023-08-30T07:06:43;15.20;99.90
53053;DHT22;38934;52.690;6.184;2023-08-30T07:09:09;15.30;99.90
53053;DHT22;38934;52.690;6.184;2023-08-30T07:11:37;15.40;99.90
53053;DHT22;38934;52.690;6.184;2023-08-30T07:14:02;15.90;99.90
53053;DHT22;38934;52.690;6.184;2023-08-30T07:16:28;15.80;99.90
53053;DHT22;38934;52.690;6.184;2023-08-30T07:18:54;16.00;99.90
53053;DHT22;38934;52.690;6.184;2023-08-30T07:21:19;16.10;99.90
53053;DHT22;38934;52.690;6.184;2023-08-30T07:23:45;16.20;99.90
53053;DHT22;38934;52.690;6.184;2023-08-30T07:26:10;16.90;99.90
53053;DHT22;38934;52.690;6.184;2023-08-30T07:28:36;16.10;99.90
53053;DHT22;38934;52.690;6.184;2023-08-30T07:31:03;16.00;99.90
53053;DHT22;38934;52.690;6.184;2023-08-30T07:33:29;15.90;99.90
53053;DHT22;38934;52.690;6.184;2023-08-30T07:35:54;15.80;99.90
53053;DHT22;38934;52.690;6.184;2023-08-30T07:38:20;15.80;99.90
53053;DHT22;38934;52.690;6.184;2023-08-30T07:40:46;15.90;99.90
53053;DHT22;38934;52.690;6.184;2023-08-30T07:43:11;15.70;99.90
53053;DHT22;38934;52.690;6.184;2023-08-30T07:45:37;15.80;99.90
53053;DHT22;38934;52.690;6.184;2023-08-30T07:48:03;15.80;99.90
53053;DHT22;38934;52.690;6.184;2023-08-30T07:50:28;15.80;99.90
53053;DHT22;38934;52.690;6.184;2023-08-30T07:52:54;15.80;99.90
53053;DHT22;38934;52.690;6.184;2023-08-30T07:55:19;15.80;99.90
53053;DHT22;38934;52.690;6.184;2023-08-30T07:57:45;16.30;99.90
53053;DHT22;38934;52.690;6.184;2023-08-30T08:00:11;15.70;99.90
53053;DHT22;38934;52.690;6.184;2023-08-30T08:02:38;15.60;99.90
53053;DHT22;38934;52.690;6.184;2023-08-30T08:05:04;15.60;99.90
53053;DHT22;38934;52.690;6.184;2023-08-30T08:07:30;15.60;99.90
53053;DHT22;38934;52.690;6.184;2023-08-30T08:09:56;15.60;99.90
53053;DHT22;38934;52.690;6.184;2023-08-30T08:12:22;15.60;99.90
53053;DHT22;38934;52.690;6.184;2023-08-30T08:14:48;15.60;99.90
53053;DHT22;38934;52.690;6.184;2023-08-30T08:17:13;15.60;99.90
53053;DHT22;38934;52.690;6.184;2023-08-30T08:19:39;15.60;99.90
53053;DHT22;38934;52.690;6.184;2023-08-30T08:22:05;15.50;99.90
53053;DHT22;38934;52.690;6.184;2023-08-30T08:24:31;15.40;99.90
53053;DHT22;38934;52.690;6.184;2023-08-30T08:26:57;15.30;99.90
53053;DHT22;38934;52.690;6.184;2023-08-30T08:29:23;15.30;99.90
53053;DHT22;38934;52.690;6.184;2023-08-30T08:31:49;15.20;99.90
53053;DHT22;38934;52.690;6.184;2023-08-30T08:34:14;15.10;99.90
53053;DHT22;38934;52.690;6.184;2023-08-30T08:36:42;15.00;99.90
53053;DHT22;38934;52.690;6.184;2023-08-30T08:39:07;14.90;99.90
53053;DHT22;38934;52.690;6.184;2023-08-30T08:41:42;15.20;99.90
53053;DHT22;38934;52.690;6.184;2023-08-30T08:44:09;14.80;99.90
53053;DHT22;38934;52.690;6.184;2023-08-30T08:46:39;14.70;99.90
53053;DHT22;38934;52.690;6.184;2023-08-30T08:49:09;14.70;99.90
53053;DHT22;38934;52.690;6.184;2023-08-30T08:51:36;14.60;99.90
53053;DHT22;38934;52.690;6.184;2023-08-30T08:54:04;14.50;99.90
53053;DHT22;38934;52.690;6.184;2023-08-30T08:56:31;14.50;99.90
53053;DHT22;38934;52.690;6.184;2023-08-30T08:58:58;14.50;99.90
53053;DHT22;38934;52.690;6.184;2023-08-30T09:01:24;14.40;99.90
53053;DHT22;38934;52.690;6.184;2023-08-30T09:03:50;14.40;99.90
53053;DHT22;38934;52.690;6.184;2023-08-30T09:06:16;14.40;99.90
53053;DHT22;38934;52.690;6.184;2023-08-30T09:08:42;14.40;99.90
53053;DHT22;38934;52.690;6.184;2023-08-30T09:11:08;14.40;99.90
53053;DHT22;38934;52.690;6.184;2023-08-30T09:13:34;14.50;99.90
53053;DHT22;38934;52.690;6.184;2023-08-30T09:15:59;14.60;99.90
53053;DHT22;38934;52.690;6.184;2023-08-30T09:18:25;14.60;99.90
53053;DHT22;38934;52.690;6.184;2023-08-30T09:21:13;14.70;99.90
53053;DHT22;38934;52.690;6.184;2023-08-30T09:23:39;14.80;99.90
53053;DHT22;38934;52.690;6.184;2023-08-30T09:26:05;14.90;99.90
53053;DHT22;38934;52.690;6.184;2023-08-30T09:28:31;15.00;99.90
53053;DHT22;38934;52.690;6.184;2023-08-30T09:30:59;15.10;99.90
53053;DHT22;38934;52.690;6.184;2023-08-30T09:33:33;15.30;99.90
53053;DHT22;38934;52.690;6.184;2023-08-30T09:35:59;15.90;99.90
53053;DHT22;38934;52.690;6.184;2023-08-30T09:38:25;15.50;99.90
53053;DHT22;38934;52.690;6.184;2023-08-30T09:40:51;15.70;99.90
53053;DHT22;38934;52.690;6.184;2023-08-30T09:43:20;15.80;99.90
53053;DHT22;38934;52.690;6.184;2023-08-30T09:45:50;16.00;99.90
53053;DHT22;38934;52.690;6.184;2023-08-30T09:48:20;16.20;99.90
53053;DHT22;38934;52.690;6.184;2023-08-30T09:50:52;16.40;99.90
53053;DHT22;38934;52.690;6.184;2023-08-30T09:53:45;16.70;99.90
53053;DHT22;38934;52.690;6.184;2023-08-30T09:56:35;16.40;99.90
53053;DHT22;38934;52.690;6.184;2023-08-30T09:59:11;16.30;99.90
53053;DHT22;38934;52.690;6.184;2023-08-30T10:01:39;16.20;99.90
53053;DHT22;38934;52.690;6.184;2023-08-30T10:04:07;16.00;99.90
53053;DHT22;38934;52.690;6.184;2023-08-30T10:06:33;15.90;99.90
53053;DHT22;38934;52.690;6.184;2023-08-30T10:08:59;15.60;99.90
53053;DHT22;38934;52.690;6.184;2023-08-30T10:11:29;15.50;99.90
53053;DHT22;38934;52.690;6.184;2023-08-30T10:13:55;15.40;99.90
53053;DHT22;38934;52.690;6.184;2023-08-30T10:16:23;15.40;99.90
53053;DHT22;38934;52.690;6.184;2023-08-30T10:19:01;15.30;99.90
53053;DHT22;38934;52.690;6.184;2023-08-30T10:21:29;15.30;99.90
53053;DHT22;38934;52.690;6.184;2023-08-30T10:23:56;15.20;99.90
53053;DHT22;38934;52.690;6.184;2023-08-30T10:26:27;15.10;99.90
53053;DHT22;38934;52.690;6.184;2023-08-30T10:28:55;15.10;99.90
53053;DHT22;38934;52.690;6.184;2023-08-30T10:31:22;15.30;99.90
53053;DHT22;38934;52.690;6.184;2023-08-30T10:33:53;15.00;99.90
53053;DHT22;38934;52.690;6.184;2023-08-30T10:36:26;14.90;99.90
53053;DHT22;38934;52.690;6.184;2023-08-30T10:38:55;15.20;99.90
53053;DHT22;38934;52.690;6.184;2023-08-30T10:41:25;14.90;99.90
53053;DHT22;38934;52.690;6.184;2023-08-30T10:43:52;14.90;99.90
53053;DHT22;38934;52.690;6.184;2023-08-30T10:46:32;14.90;99.90
53053;DHT22;38934;52.690;6.184;2023-08-30T10:49:14;14.90;99.90
53053;DHT22;38934;52.690;6.184;2023-08-30T10:51:40;14.90;99.90
53053;DHT22;38934;52.690;6.184;2023-08-30T10:54:16;14.90;99.90
53053;DHT22;38934;52.690;6.184;2023-08-30T10:56:55;14.90;99.90
53053;DHT22;38934;52.690;6.184;2023-08-30T10:59:22;14.90;99.90
53053;DHT22;38934;52.690;6.184;2023-08-30T11:01:50;15.50;99.90
53053;DHT22;38934;52.690;6.184;2023-08-30T11:04:18;14.80;99.90
53053;DHT22;38934;52.690;6.184;2023-08-30T11:06:48;14.80;99.90
53053;DHT22;38934;52.690;6.184;2023-08-30T11:09:16;14.80;99.90
53053;DHT22;38934;52.690;6.184;2023-08-30T11:11:48;14.80;99.90
53053;DHT22;38934;52.690;6.184;2023-08-30T11:14:15;14.80;99.90
53053;DHT22;38934;52.690;6.184;2023-08-30T11:16:41;14.80;99.90
53053;DHT22;38934;52.690;6.184;2023-08-30T11:19:08;14.80;99.90
53053;DHT22;38934;52.690;6.184;2023-08-30T11:21:36;14.80;99.90
53053;DHT22;38934;52.690;6.184;2023-08-30T11:24:03;14.90;99.90
53053;DHT22;38934;52.690;6.184;2023-08-30T11:26:29;14.80;99.90
53053;DHT22;38934;52.690;6.184;2023-08-30T11:28:55;14.90;99.90
53053;DHT22;38934;52.690;6.184;2023-08-30T11:31:25;14.90;99.90
53053;DHT22;38934;52.690;6.184;2023-08-30T11:33:54;14.90;99.90
53053;DHT22;38934;52.690;6.184;2023-08-30T11:36:27;14.90;99.90
53053;DHT22;38934;52.690;6.184;2023-08-30T11:38:54;14.90;99.90
53053;DHT22;38934;52.690;6.184;2023-08-30T11:41:25;14.90;99.90
53053;DHT22;38934;52.690;6.184;2023-08-30T11:43:52;15.00;99.90
53053;DHT22;38934;52.690;6.184;2023-08-30T11:46:19;15.10;99.90
53053;DHT22;38934;52.690;6.184;2023-08-30T11:48:46;15.20;99.90
53053;DHT22;38934;52.690;6.184;2023-08-30T11:51:13;15.20;99.90
53053;DHT22;38934;52.690;6.184;2023-08-30T11:53:39;15.50;99.90
53053;DHT22;38934;52.690;6.184;2023-08-30T11:56:08;15.40;99.90
53053;DHT22;38934;52.690;6.184;2023-08-30T11:58:36;15.40;99.90
53053;DHT22;38934;52.690;6.184;2023-08-30T12:01:06;15.40;99.90
53053;DHT22;38934;52.690;6.184;2023-08-30T12:03:32;15.50;99.90
53053;DHT22;38934;52.690;6.184;2023-08-30T12:05:58;15.50;99.90
53053;DHT22;38934;52.690;6.184;2023-08-30T12:08:31;15.90;99.90
53053;DHT22;38934;52.690;6.184;2023-08-30T12:10:57;15.60;99.90
53053;DHT22;38934;52.690;6.184;2023-08-30T12:13:31;16.00;99.90
53053;DHT22;38934;52.690;6.184;2023-08-30T12:15:59;15.60;99.90
53053;DHT22;38934;52.690;6.184;2023-08-30T12:18:26;16.00;99.90
53053;DHT22;38934;52.690;6.184;2023-08-30T12:21:02;15.60;99.90
53053;DHT22;38934;52.690;6.184;2023-08-30T12:23:32;15.70;99.90
53053;DHT22;38934;52.690;6.184;2023-08-30T12:28:34;15.60;99.90
53053;DHT22;38934;52.690;6.184;2023-08-30T12:31:00;15.60;99.90
53053;DHT22;38934;52.690;6.184;2023-08-30T12:33:27;15.60;99.90
53053;DHT22;38934;52.690;6.184;2023-08-30T12:35:56;15.70;99.90
53053;DHT22;38934;52.690;6.184;2023-08-30T12:38:23;15.70;99.90
53053;DHT22;38934;52.690;6.184;2023-08-30T12:40:54;15.70;99.90
53053;DHT22;38934;52.690;6.184;2023-08-30T12:43:21;15.60;99.90
53053;DHT22;38934;52.690;6.184;2023-08-30T12:45:47;16.30;99.90
53053;DHT22;38934;52.690;6.184;2023-08-30T12:48:14;15.60;99.90
53053;DHT22;38934;52.690;6.184;2023-08-30T12:50:42;15.60;99.90
53053;DHT22;38934;52.690;6.184;2023-08-30T12:53:08;15.70;99.90
53053;DHT22;38934;52.690;6.184;2023-08-30T12:55:34;15.90;99.90
53053;DHT22;38934;52.690;6.184;2023-08-30T12:58:00;16.10;99.90
53053;DHT22;38934;52.690;6.184;2023-08-30T13:00:26;17.10;99.90
53053;DHT22;38934;52.690;6.184;2023-08-30T13:02:52;16.50;99.90
53053;DHT22;38934;52.690;6.184;2023-08-30T13:05:18;16.60;99.90
53053;DHT22;38934;52.690;6.184;2023-08-30T13:07:44;16.50;99.90
53053;DHT22;38934;52.690;6.184;2023-08-30T13:10:10;16.70;99.90
53053;DHT22;38934;52.690;6.184;2023-08-30T13:12:37;16.70;99.90
53053;DHT22;38934;52.690;6.184;2023-08-30T13:15:06;16.80;99.90
53053;DHT22;38934;52.690;6.184;2023-08-30T13:17:32;16.90;99.90
53053;DHT22;38934;52.690;6.184;2023-08-30T13:19:58;17.40;99.90
53053;DHT22;38934;52.690;6.184;2023-08-30T13:22:24;16.80;99.90
53053;DHT22;38934;52.690;6.184;2023-08-30T13:24:51;16.80;99.90
53053;DHT22;38934;52.690;6.184;2023-08-30T13:27:18;16.90;99.90
53053;DHT22;38934;52.690;6.184;2023-08-30T13:29:43;16.90;99.90
53053;DHT22;38934;52.690;6.184;2023-08-30T13:32:09;17.00;99.90
53053;DHT22;38934;52.690;6.184;2023-08-30T13:34:35;17.00;99.90
53053;DHT22;38934;52.690;6.184;2023-08-30T13:37:00;17.20;99.90
53053;DHT22;38934;52.690;6.184;2023-08-30T13:39:26;17.20;99.90
53053;DHT22;38934;52.690;6.184;2023-08-30T13:41:51;17.30;99.90
53053;DHT22;38934;52.690;6.184;2023-08-30T13:44:17;17.60;99.90
53053;DHT22;38934;52.690;6.184;2023-08-30T13:46:44;17.50;99.90
53053;DHT22;38934;52.690;6.184;2023-08-30T13:49:09;17.50;99.90
53053;DHT22;38934;52.690;6.184;2023-08-30T13:51:35;17.60;99.90
53053;DHT22;38934;52.690;6.184;2023-08-30T13:54:02;17.80;99.90
53053;DHT22;38934;52.690;6.184;2023-08-30T13:56:27;17.80;99.90
53053;DHT22;38934;52.690;6.184;2023-08-30T13:58:55;17.90;99.90
53053;DHT22;38934;52.690;6.184;2023-08-30T14:01:21;18.00;99.90
53053;DHT22;38934;52.690;6.184;2023-08-30T14:03:46;18.10;99.90
53053;DHT22;38934;52.690;6.184;2023-08-30T14:06:12;18.00;99.90
53053;DHT22;38934;52.690;6.184;2023-08-30T14:08:37;18.40;99.90
53053;DHT22;38934;52.690;6.184;2023-08-30T14:11:03;18.50;99.90
53053;DHT22;38934;52.690;6.184;2023-08-30T14:13:29;17.90;99.90
53053;DHT22;38934;52.690;6.184;2023-08-30T14:16:03;17.80;99.90
53053;DHT22;38934;52.690;6.184;2023-08-30T14:18:29;17.90;99.90
53053;DHT22;38934;52.690;6.184;2023-08-30T14:20:59;18.10;99.90
53053;DHT22;38934;52.690;6.184;2023-08-30T14:23:25;18.20;99.90
53053;DHT22;38934;52.690;6.184;2023-08-30T14:26:18;18.60;99.90
53053;DHT22;38934;52.690;6.184;2023-08-30T14:28:44;18.30;99.90
53053;DHT22;38934;52.690;6.184;2023-08-30T14:31:10;18.40;99.90
53053;DHT22;38934;52.690;6.184;2023-08-30T14:33:36;18.30;99.90
53053;DHT22;38934;52.690;6.184;2023-08-30T14:36:03;18.40;99.90
53053;DHT22;38934;52.690;6.184;2023-08-30T14:38:29;18.40;99.90
53053;DHT22;38934;52.690;6.184;2023-08-30T14:40:56;18.30;99.90
53053;DHT22;38934;52.690;6.184;2023-08-30T14:43:22;18.20;99.90
53053;DHT22;38934;52.690;6.184;2023-08-30T14:45:47;17.90;99.90
53053;DHT22;38934;52.690;6.184;2023-08-30T14:48:13;17.70;99.90
53053;DHT22;38934;52.690;6.184;2023-08-30T14:50:38;17.70;99.90
53053;DHT22;38934;52.690;6.184;2023-08-30T14:53:04;17.50;99.90
53053;DHT22;38934;52.690;6.184;2023-08-30T14:55:31;17.40;99.90
53053;DHT22;38934;52.690;6.184;2023-08-30T14:57:57;17.30;99.90
53053;DHT22;38934;52.690;6.184;2023-08-30T15:00:23;17.30;99.90
53053;DHT22;38934;52.690;6.184;2023-08-30T15:02:49;17.30;99.90
53053;DHT22;38934;52.690;6.184;2023-08-30T15:05:15;17.40;99.90
53053;DHT22;38934;52.690;6.184;2023-08-30T15:07:41;17.50;99.90
53053;DHT22;38934;52.690;6.184;2023-08-30T15:10:06;17.60;99.90
53053;DHT22;38934;52.690;6.184;2023-08-30T15:12:32;17.70;99.90
53053;DHT22;38934;52.690;6.184;2023-08-30T15:14:58;17.60;99.90
53053;DHT22;38934;52.690;6.184;2023-08-30T15:17:23;17.50;99.90
53053;DHT22;38934;52.690;6.184;2023-08-30T15:19:49;17.50;99.90
53053;DHT22;38934;52.690;6.184;2023-08-30T15:22:15;17.30;99.90
53053;DHT22;38934;52.690;6.184;2023-08-30T15:24:40;17.30;99.90
53053;DHT22;38934;52.690;6.184;2023-08-30T15:27:06;17.10;99.90
53053;DHT22;38934;52.690;6.184;2023-08-30T15:29:31;17.00;99.90
53053;DHT22;38934;52.690;6.184;2023-08-30T15:31:57;16.90;99.90
53053;DHT22;38934;52.690;6.184;2023-08-30T15:34:23;16.90;99.90
53053;DHT22;38934;52.690;6.184;2023-08-30T15:36:48;16.80;99.90
53053;DHT22;38934;52.690;6.184;2023-08-30T15:39:14;16.80;99.90